sensor_id;sensor_type;location;lat;lon;timestamp;P1;durP1;ratioP1;P2;durP2;ratioP2
29838;SDS011;18669;53.356;-1.464;2022-10-31T00:00:24;25.77;;;4.63;;
29838;SDS011;18669;53.356;-1.464;2022-10-31T00:05:16;17.83;;;3.28;;
29838;SDS011;18669;53.356;-1.464;2022-10-31T00:10:08;28.25;;;3.75;;
29838;SDS011;18669;53.356;-1.464;2022-10-31T00:12:35;22.85;;;3.90;;
29838;SDS011;18669;53.356;-1.464;2022-10-31T00:15:02;18.75;;;3.42;;
29838;SDS011;18669;53.356;-1.464;2022-10-31T00:17:28;21.48;;;4.30;;
29838;SDS011;18669;53.356;-1.464;2022-10-31T00:22:20;19.20;;;3.38;;
29838;SDS011;18669;53.356;-1.464;2022-10-31T00:27:13;14.90;;;3.42;;
29838;SDS011;18669;53.356;-1.464;2022-10-31T00:29:39;25.80;;;4.00;;
29838;SDS011;18669;53.356;-1.464;2022-10-31T00:32:05;21.55;;;3.53;;
29838;SDS011;18669;53.356;-1.464;2022-10-31T00:34:32;14.07;;;3.47;;
29838;SDS011;18669;53.356;-1.464;2022-10-31T00:39:24;19.90;;;3.47;;
29838;SDS011;18669;53.356;-1.464;2022-10-31T00:44:16;14.05;;;2.95;;
29838;SDS011;18669;53.356;-1.464;2022-10-31T00:49:08;13.77;;;2.97;;
29838;SDS011;18669;53.356;-1.464;2022-10-31T00:54:00;16.33;;;3.10;;
29838;SDS011;18669;53.356;-1.464;2022-10-31T00:58:52;18.20;;;3.55;;
29838;SDS011;18669;53.356;-1.464;2022-10-31T01:03:43;15.52;;;3.33;;
29838;SDS011;18669;53.356;-1.464;2022-10-31T01:08:37;14.55;;;2.90;;
29838;SDS011;18669;53.356;-1.464;2022-10-31T01:11:05;17.88;;;3.30;;
29838;SDS011;18669;53.356;-1.464;2022-10-31T01:13:35;17.52;;;3.17;;
29838;SDS011;18669;53.356;-1.464;2022-10-31T01:16:02;23.35;;;3.70;;
29838;SDS011;18669;53.356;-1.464;2022-10-31T01:18:30;15.68;;;3.10;;
29838;SDS011;18669;53.356;-1.464;2022-10-31T01:23:42;11.32;;;3.22;;
29838;SDS011;18669;53.356;-1.464;2022-10-31T01:28:37;17.90;;;3.17;;
29838;SDS011;18669;53.356;-1.464;2022-10-31T01:31:08;14.90;;;2.92;;
29838;SDS011;18669;53.356;-1.464;2022-10-31T01:33:35;15.50;;;3.00;;
29838;SDS011;18669;53.356;-1.464;2022-10-31T01:36:10;13.73;;;3.17;;
29838;SDS011;18669;53.356;-1.464;2022-10-31T01:38:41;16.02;;;3.17;;
29838;SDS011;18669;53.356;-1.464;2022-10-31T01:43:48;20.25;;;3.22;;
29838;SDS011;18669;53.356;-1.464;2022-10-31T01:48:54;17.65;;;3.03;;
29838;SDS011;18669;53.356;-1.464;2022-10-31T01:51:23;11.30;;;2.92;;
29838;SDS011;18669;53.356;-1.464;2022-10-31T01:53:55;17.13;;;3.88;;
29838;SDS011;18669;53.356;-1.464;2022-10-31T01:56:25;17.80;;;3.75;;
29838;SDS011;18669;53.356;-1.464;2022-10-31T01:58:52;23.95;;;4.20;;
29838;SDS011;18669;53.356;-1.464;2022-10-31T02:01:20;15.55;;;3.47;;
29838;SDS011;18669;53.356;-1.464;2022-10-31T02:03:47;24.15;;;4.30;;
29838;SDS011;18669;53.356;-1.464;2022-10-31T02:06:19;15.77;;;3.65;;
29838;SDS011;18669;53.356;-1.464;2022-10-31T02:08:52;18.58;;;3.13;;
29838;SDS011;18669;53.356;-1.464;2022-10-31T02:11:20;33.58;;;3.95;;
29838;SDS011;18669;53.356;-1.464;2022-10-31T02:16:12;19.63;;;4.22;;
29838;SDS011;18669;53.356;-1.464;2022-10-31T02:18:39;14.85;;;3.22;;
29838;SDS011;18669;53.356;-1.464;2022-10-31T02:26:32;17.63;;;3.47;;
29838;SDS011;18669;53.356;-1.464;2022-10-31T02:32:54;21.75;;;3.75;;
29838;SDS011;18669;53.356;-1.464;2022-10-31T02:35:42;24.48;;;3.97;;
29838;SDS011;18669;53.356;-1.464;2022-10-31T02:38:59;20.65;;;3.42;;
29838;SDS011;18669;53.356;-1.464;2022-10-31T02:45:03;27.13;;;4.03;;
29838;SDS011;18669;53.356;-1.464;2022-10-31T02:47:41;27.23;;;3.95;;
29838;SDS011;18669;53.356;-1.464;2022-10-31T02:50:10;27.55;;;3.80;;
29838;SDS011;18669;53.356;-1.464;2022-10-31T02:52:43;32.33;;;4.10;;
29838;SDS011;18669;53.356;-1.464;2022-10-31T02:57:37;19.23;;;3.25;;
29838;SDS011;18669;53.356;-1.464;2022-10-31T03:00:07;20.17;;;3.95;;
29838;SDS011;18669;53.356;-1.464;2022-10-31T03:11:11;20.77;;;3.72;;
29838;SDS011;18669;53.356;-1.464;2022-10-31T03:13:51;24.75;;;3.58;;
29838;SDS011;18669;53.356;-1.464;2022-10-31T03:16:50;14.93;;;3.13;;
29838;SDS011;18669;53.356;-1.464;2022-10-31T03:19:26;22.85;;;3.55;;
29838;SDS011;18669;53.356;-1.464;2022-10-31T03:22:01;25.27;;;3.35;;
29838;SDS011;18669;53.356;-1.464;2022-10-31T03:24:34;16.55;;;3.38;;
29838;SDS011;18669;53.356;-1.464;2022-10-31T03:27:02;20.23;;;3.47;;
29838;SDS011;18669;53.356;-1.464;2022-10-31T03:29:34;24.42;;;3.55;;
29838;SDS011;18669;53.356;-1.464;2022-10-31T03:32:04;17.80;;;3.65;;
29838;SDS011;18669;53.356;-1.464;2022-10-31T03:34:36;31.75;;;3.85;;
29838;SDS011;18669;53.356;-1.464;2022-10-31T03:37:07;22.33;;;3.17;;
29838;SDS011;18669;53.356;-1.464;2022-10-31T03:39:36;23.58;;;3.40;;
29838;SDS011;18669;53.356;-1.464;2022-10-31T03:44:34;21.30;;;3.08;;
29838;SDS011;18669;53.356;-1.464;2022-10-31T03:47:04;16.30;;;2.97;;
29838;SDS011;18669;53.356;-1.464;2022-10-31T03:49:30;17.08;;;3.20;;
29838;SDS011;18669;53.356;-1.464;2022-10-31T03:52:11;19.08;;;3.45;;
29838;SDS011;18669;53.356;-1.464;2022-10-31T03:55:02;20.05;;;3.17;;
29838;SDS011;18669;53.356;-1.464;2022-10-31T03:57:33;16.83;;;3.40;;
29838;SDS011;18669;53.356;-1.464;2022-10-31T04:00:40;17.58;;;2.90;;
29838;SDS011;18669;53.356;-1.464;2022-10-31T04:03:14;16.35;;;3.03;;
29838;SDS011;18669;53.356;-1.464;2022-10-31T04:05:44;25.40;;;3.45;;
29838;SDS011;18669;53.356;-1.464;2022-10-31T04:08:15;25.83;;;3.20;;
29838;SDS011;18669;53.356;-1.464;2022-10-31T04:10:46;25.65;;;3.38;;
29838;SDS011;18669;53.356;-1.464;2022-10-31T04:13:17;19.42;;;3.17;;
29838;SDS011;18669;53.356;-1.464;2022-10-31T04:15:48;16.30;;;3.30;;
29838;SDS011;18669;53.356;-1.464;2022-10-31T04:18:18;15.60;;;2.72;;
29838;SDS011;18669;53.356;-1.464;2022-10-31T04:23:14;21.23;;;3.78;;
29838;SDS011;18669;53.356;-1.464;2022-10-31T04:25:47;15.40;;;3.22;;
29838;SDS011;18669;53.356;-1.464;2022-10-31T04:28:14;23.83;;;3.20;;
29838;SDS011;18669;53.356;-1.464;2022-10-31T04:33:06;19.48;;;3.58;;
29838;SDS011;18669;53.356;-1.464;2022-10-31T04:35:32;19.55;;;2.88;;
29838;SDS011;18669;53.356;-1.464;2022-10-31T04:40:24;20.25;;;2.78;;
29838;SDS011;18669;53.356;-1.464;2022-10-31T04:45:16;24.10;;;3.47;;
29838;SDS011;18669;53.356;-1.464;2022-10-31T04:47:42;22.33;;;3.13;;
29838;SDS011;18669;53.356;-1.464;2022-10-31T04:52:39;8.93;;;2.10;;
29838;SDS011;18669;53.356;-1.464;2022-10-31T04:55:08;24.23;;;2.63;;
29838;SDS011;18669;53.356;-1.464;2022-10-31T04:57:42;20.38;;;3.60;;
29838;SDS011;18669;53.356;-1.464;2022-10-31T05:00:10;20.58;;;2.92;;
29838;SDS011;18669;53.356;-1.464;2022-10-31T05:02:44;19.38;;;2.72;;
29838;SDS011;18669;53.356;-1.464;2022-10-31T05:05:10;11.45;;;2.30;;
29838;SDS011;18669;53.356;-1.464;2022-10-31T05:07:38;13.20;;;2.58;;
29838;SDS011;18669;53.356;-1.464;2022-10-31T05:10:06;18.55;;;2.53;;
29838;SDS011;18669;53.356;-1.464;2022-10-31T05:12:35;18.00;;;2.78;;
29838;SDS011;18669;53.356;-1.464;2022-10-31T05:15:01;19.92;;;3.33;;
29838;SDS011;18669;53.356;-1.464;2022-10-31T05:17:28;12.50;;;2.72;;
29838;SDS011;18669;53.356;-1.464;2022-10-31T05:19:56;23.17;;;2.90;;
29838;SDS011;18669;53.356;-1.464;2022-10-31T05:24:48;20.85;;;2.83;;
29838;SDS011;18669;53.356;-1.464;2022-10-31T05:29:41;17.77;;;3.00;;
29838;SDS011;18669;53.356;-1.464;2022-10-31T05:34:32;20.92;;;3.20;;
29838;SDS011;18669;53.356;-1.464;2022-10-31T05:39:24;12.40;;;2.40;;
29838;SDS011;18669;53.356;-1.464;2022-10-31T05:41:51;20.30;;;2.85;;
29838;SDS011;18669;53.356;-1.464;2022-10-31T05:46:43;17.90;;;2.83;;
29838;SDS011;18669;53.356;-1.464;2022-10-31T05:51:35;25.33;;;3.50;;
29838;SDS011;18669;53.356;-1.464;2022-10-31T05:56:27;27.83;;;3.15;;
29838;SDS011;18669;53.356;-1.464;2022-10-31T06:01:19;19.73;;;2.63;;
29838;SDS011;18669;53.356;-1.464;2022-10-31T06:06:11;15.77;;;3.47;;
29838;SDS011;18669;53.356;-1.464;2022-10-31T06:11:03;21.48;;;2.35;;
29838;SDS011;18669;53.356;-1.464;2022-10-31T06:13:29;19.08;;;3.08;;
29838;SDS011;18669;53.356;-1.464;2022-10-31T06:18:21;18.90;;;3.95;;
29838;SDS011;18669;53.356;-1.464;2022-10-31T06:23:13;15.40;;;2.92;;
29838;SDS011;18669;53.356;-1.464;2022-10-31T06:28:05;16.48;;;2.65;;
29838;SDS011;18669;53.356;-1.464;2022-10-31T06:33:03;14.30;;;2.67;;
29838;SDS011;18669;53.356;-1.464;2022-10-31T06:35:30;25.67;;;2.63;;
29838;SDS011;18669;53.356;-1.464;2022-10-31T06:37:56;11.43;;;2.60;;
29838;SDS011;18669;53.356;-1.464;2022-10-31T06:40:23;16.33;;;2.60;;
29838;SDS011;18669;53.356;-1.464;2022-10-31T06:42:56;13.63;;;2.08;;
29838;SDS011;18669;53.356;-1.464;2022-10-31T06:45:24;11.50;;;2.45;;
29838;SDS011;18669;53.356;-1.464;2022-10-31T06:47:52;20.35;;;2.50;;
29838;SDS011;18669;53.356;-1.464;2022-10-31T06:50:19;14.52;;;3.13;;
29838;SDS011;18669;53.356;-1.464;2022-10-31T06:52:50;19.80;;;2.60;;
29838;SDS011;18669;53.356;-1.464;2022-10-31T06:55:22;16.25;;;2.40;;
29838;SDS011;18669;53.356;-1.464;2022-10-31T06:57:53;15.10;;;2.67;;
29838;SDS011;18669;53.356;-1.464;2022-10-31T07:00:20;20.98;;;2.80;;
29838;SDS011;18669;53.356;-1.464;2022-10-31T07:03:04;20.45;;;2.72;;
29838;SDS011;18669;53.356;-1.464;2022-10-31T07:05:31;20.00;;;3.10;;
29838;SDS011;18669;53.356;-1.464;2022-10-31T07:07:59;13.75;;;2.88;;
29838;SDS011;18669;53.356;-1.464;2022-10-31T07:10:28;22.55;;;3.08;;
29838;SDS011;18669;53.356;-1.464;2022-10-31T07:12:57;18.50;;;2.88;;
29838;SDS011;18669;53.356;-1.464;2022-10-31T07:15:24;19.35;;;3.42;;
29838;SDS011;18669;53.356;-1.464;2022-10-31T07:17:51;17.02;;;2.78;;
29838;SDS011;18669;53.356;-1.464;2022-10-31T07:20:17;18.73;;;2.67;;
29838;SDS011;18669;53.356;-1.464;2022-10-31T07:22:44;17.23;;;2.58;;
29838;SDS011;18669;53.356;-1.464;2022-10-31T07:25:10;19.40;;;3.25;;
29838;SDS011;18669;53.356;-1.464;2022-10-31T07:27:37;20.02;;;2.95;;
29838;SDS011;18669;53.356;-1.464;2022-10-31T07:30:06;17.50;;;2.60;;
29838;SDS011;18669;53.356;-1.464;2022-10-31T07:32:43;12.27;;;2.60;;
29838;SDS011;18669;53.356;-1.464;2022-10-31T07:35:15;13.07;;;2.90;;
29838;SDS011;18669;53.356;-1.464;2022-10-31T07:37:45;20.63;;;3.83;;
29838;SDS011;18669;53.356;-1.464;2022-10-31T07:40:12;14.85;;;3.00;;
29838;SDS011;18669;53.356;-1.464;2022-10-31T07:42:40;17.98;;;2.95;;
29838;SDS011;18669;53.356;-1.464;2022-10-31T07:45:11;24.17;;;3.25;;
29838;SDS011;18669;53.356;-1.464;2022-10-31T07:47:47;17.17;;;2.58;;
29838;SDS011;18669;53.356;-1.464;2022-10-31T07:50:16;20.42;;;3.10;;
29838;SDS011;18669;53.356;-1.464;2022-10-31T07:53:03;20.58;;;2.58;;
29838;SDS011;18669;53.356;-1.464;2022-10-31T07:55:38;14.77;;;2.50;;
29838;SDS011;18669;53.356;-1.464;2022-10-31T08:00:33;15.32;;;2.35;;
29838;SDS011;18669;53.356;-1.464;2022-10-31T08:03:07;24.98;;;2.92;;
29838;SDS011;18669;53.356;-1.464;2022-10-31T08:05:37;20.20;;;3.33;;
29838;SDS011;18669;53.356;-1.464;2022-10-31T08:08:05;18.38;;;2.88;;
29838;SDS011;18669;53.356;-1.464;2022-10-31T08:10:32;10.52;;;2.78;;
29838;SDS011;18669;53.356;-1.464;2022-10-31T08:13:01;13.00;;;2.72;;
29838;SDS011;18669;53.356;-1.464;2022-10-31T08:15:31;9.10;;;2.20;;
29838;SDS011;18669;53.356;-1.464;2022-10-31T08:18:00;21.75;;;2.65;;
29838;SDS011;18669;53.356;-1.464;2022-10-31T08:20:27;21.02;;;3.10;;
29838;SDS011;18669;53.356;-1.464;2022-10-31T08:25:20;14.98;;;2.50;;
29838;SDS011;18669;53.356;-1.464;2022-10-31T08:27:49;15.07;;;2.47;;
29838;SDS011;18669;53.356;-1.464;2022-10-31T08:30:16;10.70;;;2.00;;
29838;SDS011;18669;53.356;-1.464;2022-10-31T08:32:43;14.25;;;3.13;;
29838;SDS011;18669;53.356;-1.464;2022-10-31T08:37:35;24.63;;;3.30;;
29838;SDS011;18669;53.356;-1.464;2022-10-31T08:40:02;16.13;;;2.33;;
29838;SDS011;18669;53.356;-1.464;2022-10-31T08:42:30;16.48;;;2.85;;
29838;SDS011;18669;53.356;-1.464;2022-10-31T08:47:22;13.32;;;3.08;;
29838;SDS011;18669;53.356;-1.464;2022-10-31T08:49:48;14.80;;;3.47;;
29838;SDS011;18669;53.356;-1.464;2022-10-31T08:54:41;16.50;;;2.83;;
29838;SDS011;18669;53.356;-1.464;2022-10-31T08:59:33;12.48;;;2.97;;
29838;SDS011;18669;53.356;-1.464;2022-10-31T09:02:00;19.40;;;3.50;;
29838;SDS011;18669;53.356;-1.464;2022-10-31T09:06:52;11.80;;;3.25;;
29838;SDS011;18669;53.356;-1.464;2022-10-31T09:09:18;14.40;;;3.17;;
29838;SDS011;18669;53.356;-1.464;2022-10-31T09:11:44;14.98;;;3.10;;
29838;SDS011;18669;53.356;-1.464;2022-10-31T09:14:12;13.50;;;3.20;;
29838;SDS011;18669;53.356;-1.464;2022-10-31T09:16:38;13.88;;;2.80;;
29838;SDS011;18669;53.356;-1.464;2022-10-31T09:21:30;18.15;;;2.50;;
29838;SDS011;18669;53.356;-1.464;2022-10-31T09:23:56;15.52;;;2.70;;
29838;SDS011;18669;53.356;-1.464;2022-10-31T09:26:23;10.63;;;2.47;;
29838;SDS011;18669;53.356;-1.464;2022-10-31T09:28:49;18.80;;;3.10;;
29838;SDS011;18669;53.356;-1.464;2022-10-31T09:31:15;20.13;;;2.97;;
29838;SDS011;18669;53.356;-1.464;2022-10-31T09:33:41;14.70;;;2.33;;
29838;SDS011;18669;53.356;-1.464;2022-10-31T09:36:07;14.93;;;2.83;;
29838;SDS011;18669;53.356;-1.464;2022-10-31T09:38:34;14.48;;;2.47;;
29838;SDS011;18669;53.356;-1.464;2022-10-31T09:41:06;18.30;;;2.70;;
29838;SDS011;18669;53.356;-1.464;2022-10-31T09:46:33;14.70;;;2.30;;
29838;SDS011;18669;53.356;-1.464;2022-10-31T09:52:02;11.93;;;2.22;;
29838;SDS011;18669;53.356;-1.464;2022-10-31T09:54:40;11.32;;;1.90;;
29838;SDS011;18669;53.356;-1.464;2022-10-31T09:57:13;18.30;;;2.42;;
29838;SDS011;18669;53.356;-1.464;2022-10-31T09:59:46;9.82;;;2.33;;
29838;SDS011;18669;53.356;-1.464;2022-10-31T10:10:13;13.98;;;2.17;;
29838;SDS011;18669;53.356;-1.464;2022-10-31T10:20:35;13.00;;;1.90;;
29838;SDS011;18669;53.356;-1.464;2022-10-31T10:23:20;9.68;;;2.63;;
29838;SDS011;18669;53.356;-1.464;2022-10-31T10:25:50;17.67;;;2.38;;
29838;SDS011;18669;53.356;-1.464;2022-10-31T10:28:31;19.40;;;2.78;;
29838;SDS011;18669;53.356;-1.464;2022-10-31T10:31:08;8.80;;;1.63;;
29838;SDS011;18669;53.356;-1.464;2022-10-31T10:33:41;16.63;;;1.83;;
29838;SDS011;18669;53.356;-1.464;2022-10-31T10:38:58;11.52;;;2.15;;
29838;SDS011;18669;53.356;-1.464;2022-10-31T10:41:41;16.27;;;2.47;;
29838;SDS011;18669;53.356;-1.464;2022-10-31T10:44:12;14.32;;;2.13;;
29838;SDS011;18669;53.356;-1.464;2022-10-31T10:46:42;12.60;;;2.30;;
29838;SDS011;18669;53.356;-1.464;2022-10-31T11:00:26;12.20;;;2.10;;
29838;SDS011;18669;53.356;-1.464;2022-10-31T11:02:55;11.95;;;2.00;;
29838;SDS011;18669;53.356;-1.464;2022-10-31T11:07:48;12.45;;;1.92;;
29838;SDS011;18669;53.356;-1.464;2022-10-31T11:10:15;8.90;;;2.35;;
29838;SDS011;18669;53.356;-1.464;2022-10-31T11:12:45;14.18;;;2.28;;
29838;SDS011;18669;53.356;-1.464;2022-10-31T11:15:24;14.25;;;2.30;;
29838;SDS011;18669;53.356;-1.464;2022-10-31T11:17:54;11.45;;;1.92;;
29838;SDS011;18669;53.356;-1.464;2022-10-31T11:20:24;14.75;;;2.40;;
29838;SDS011;18669;53.356;-1.464;2022-10-31T11:23:00;11.48;;;2.50;;
29838;SDS011;18669;53.356;-1.464;2022-10-31T11:25:28;10.13;;;2.15;;
29838;SDS011;18669;53.356;-1.464;2022-10-31T11:30:42;19.77;;;2.70;;
29838;SDS011;18669;53.356;-1.464;2022-10-31T11:33:14;9.75;;;2.30;;
29838;SDS011;18669;53.356;-1.464;2022-10-31T11:35:48;11.35;;;2.13;;
29838;SDS011;18669;53.356;-1.464;2022-10-31T11:38:16;15.25;;;2.45;;
29838;SDS011;18669;53.356;-1.464;2022-10-31T11:40:55;13.25;;;2.17;;
29838;SDS011;18669;53.356;-1.464;2022-10-31T11:43:31;13.53;;;1.97;;
29838;SDS011;18669;53.356;-1.464;2022-10-31T11:45:57;16.90;;;2.10;;
29838;SDS011;18669;53.356;-1.464;2022-10-31T11:48:24;10.60;;;1.88;;
29838;SDS011;18669;53.356;-1.464;2022-10-31T11:50:54;9.63;;;1.98;;
29838;SDS011;18669;53.356;-1.464;2022-10-31T11:53:32;21.98;;;2.80;;
29838;SDS011;18669;53.356;-1.464;2022-10-31T11:56:18;15.48;;;2.35;;
29838;SDS011;18669;53.356;-1.464;2022-10-31T11:58:54;23.20;;;2.58;;
29838;SDS011;18669;53.356;-1.464;2022-10-31T12:01:27;11.30;;;2.70;;
29838;SDS011;18669;53.356;-1.464;2022-10-31T12:06:39;13.77;;;2.13;;
29838;SDS011;18669;53.356;-1.464;2022-10-31T12:17:18;13.30;;;2.60;;
29838;SDS011;18669;53.356;-1.464;2022-10-31T12:36:41;13.63;;;2.30;;
29838;SDS011;18669;53.356;-1.464;2022-10-31T12:42:17;17.85;;;3.88;;
29838;SDS011;18669;53.356;-1.464;2022-10-31T12:58:22;14.20;;;3.72;;
29838;SDS011;18669;53.356;-1.464;2022-10-31T13:00:58;17.63;;;4.10;;
29838;SDS011;18669;53.356;-1.464;2022-10-31T13:03:30;14.40;;;4.45;;
29838;SDS011;18669;53.356;-1.464;2022-10-31T13:06:06;16.45;;;4.32;;
29838;SDS011;18669;53.356;-1.464;2022-10-31T13:08:43;11.73;;;3.00;;
29838;SDS011;18669;53.356;-1.464;2022-10-31T13:11:31;8.45;;;3.03;;
29838;SDS011;18669;53.356;-1.464;2022-10-31T13:16:34;19.05;;;6.50;;
29838;SDS011;18669;53.356;-1.464;2022-10-31T13:24:25;25.60;;;9.98;;
29838;SDS011;18669;53.356;-1.464;2022-10-31T13:26:58;17.38;;;5.85;;
29838;SDS011;18669;53.356;-1.464;2022-10-31T13:29:32;16.95;;;3.95;;
29838;SDS011;18669;53.356;-1.464;2022-10-31T13:34:37;12.40;;;2.70;;
29838;SDS011;18669;53.356;-1.464;2022-10-31T13:40:04;18.70;;;4.38;;
29838;SDS011;18669;53.356;-1.464;2022-10-31T13:45:21;9.10;;;2.47;;
29838;SDS011;18669;53.356;-1.464;2022-10-31T13:48:50;20.10;;;7.68;;
29838;SDS011;18669;53.356;-1.464;2022-10-31T13:51:03;11.27;;;2.22;;
29838;SDS011;18669;53.356;-1.464;2022-10-31T13:53:36;15.68;;;2.60;;
29838;SDS011;18669;53.356;-1.464;2022-10-31T13:56:03;14.18;;;3.20;;
29838;SDS011;18669;53.356;-1.464;2022-10-31T13:58:52;20.60;;;3.92;;
29838;SDS011;18669;53.356;-1.464;2022-10-31T14:01:22;14.77;;;3.25;;
29838;SDS011;18669;53.356;-1.464;2022-10-31T14:03:56;15.77;;;3.95;;
29838;SDS011;18669;53.356;-1.464;2022-10-31T14:06:23;11.32;;;4.43;;
29838;SDS011;18669;53.356;-1.464;2022-10-31T14:09:03;14.90;;;3.55;;
29838;SDS011;18669;53.356;-1.464;2022-10-31T14:11:30;15.93;;;2.90;;
29838;SDS011;18669;53.356;-1.464;2022-10-31T14:13:57;12.00;;;3.03;;
29838;SDS011;18669;53.356;-1.464;2022-10-31T14:16:28;14.60;;;2.70;;
29838;SDS011;18669;53.356;-1.464;2022-10-31T14:19:01;12.13;;;3.13;;
29838;SDS011;18669;53.356;-1.464;2022-10-31T14:21:36;10.52;;;3.47;;
29838;SDS011;18669;53.356;-1.464;2022-10-31T14:24:50;15.82;;;5.63;;
29838;SDS011;18669;53.356;-1.464;2022-10-31T14:26:58;17.48;;;6.75;;
29838;SDS011;18669;53.356;-1.464;2022-10-31T14:40:03;8.38;;;2.63;;
29838;SDS011;18669;53.356;-1.464;2022-10-31T14:42:49;11.35;;;2.42;;
29838;SDS011;18669;53.356;-1.464;2022-10-31T14:51:15;9.93;;;2.33;;
29838;SDS011;18669;53.356;-1.464;2022-10-31T14:53:46;7.85;;;2.00;;
29838;SDS011;18669;53.356;-1.464;2022-10-31T14:56:49;12.23;;;3.33;;
29838;SDS011;18669;53.356;-1.464;2022-10-31T14:59:14;11.70;;;3.30;;
29838;SDS011;18669;53.356;-1.464;2022-10-31T15:01:56;14.10;;;2.83;;
29838;SDS011;18669;53.356;-1.464;2022-10-31T15:04:28;6.72;;;2.60;;
29838;SDS011;18669;53.356;-1.464;2022-10-31T15:09:38;8.07;;;2.60;;
29838;SDS011;18669;53.356;-1.464;2022-10-31T15:15:11;10.98;;;3.40;;
29838;SDS011;18669;53.356;-1.464;2022-10-31T15:17:49;9.82;;;2.58;;
29838;SDS011;18669;53.356;-1.464;2022-10-31T15:20:23;9.82;;;2.38;;
29838;SDS011;18669;53.356;-1.464;2022-10-31T15:22:56;8.52;;;2.25;;
29838;SDS011;18669;53.356;-1.464;2022-10-31T15:25:24;7.40;;;1.80;;
29838;SDS011;18669;53.356;-1.464;2022-10-31T15:27:53;10.32;;;2.92;;
29838;SDS011;18669;53.356;-1.464;2022-10-31T15:30:21;8.43;;;2.13;;
29838;SDS011;18669;53.356;-1.464;2022-10-31T15:32:49;18.38;;;2.53;;
29838;SDS011;18669;53.356;-1.464;2022-10-31T15:35:26;8.35;;;2.42;;
29838;SDS011;18669;53.356;-1.464;2022-10-31T15:37:55;10.40;;;3.08;;
29838;SDS011;18669;53.356;-1.464;2022-10-31T15:40:23;11.35;;;2.33;;
29838;SDS011;18669;53.356;-1.464;2022-10-31T15:42:53;12.82;;;2.50;;
29838;SDS011;18669;53.356;-1.464;2022-10-31T15:45:25;10.68;;;2.97;;
29838;SDS011;18669;53.356;-1.464;2022-10-31T15:48:00;8.40;;;2.75;;
29838;SDS011;18669;53.356;-1.464;2022-10-31T15:50:34;11.10;;;2.63;;
29838;SDS011;18669;53.356;-1.464;2022-10-31T15:53:05;10.93;;;2.70;;
29838;SDS011;18669;53.356;-1.464;2022-10-31T15:55:44;20.02;;;2.95;;
29838;SDS011;18669;53.356;-1.464;2022-10-31T15:58:14;13.45;;;4.05;;
29838;SDS011;18669;53.356;-1.464;2022-10-31T16:00:42;13.57;;;3.38;;
29838;SDS011;18669;53.356;-1.464;2022-10-31T16:05:39;9.02;;;3.08;;
29838;SDS011;18669;53.356;-1.464;2022-10-31T16:13:34;7.38;;;2.88;;
29838;SDS011;18669;53.356;-1.464;2022-10-31T16:16:04;9.82;;;2.90;;
29838;SDS011;18669;53.356;-1.464;2022-10-31T16:18:38;11.82;;;3.00;;
29838;SDS011;18669;53.356;-1.464;2022-10-31T16:21:07;15.57;;;3.28;;
29838;SDS011;18669;53.356;-1.464;2022-10-31T16:23:34;9.18;;;3.70;;
29838;SDS011;18669;53.356;-1.464;2022-10-31T16:26:07;10.95;;;4.28;;
29838;SDS011;18669;53.356;-1.464;2022-10-31T16:28:35;27.80;;;15.23;;
29838;SDS011;18669;53.356;-1.464;2022-10-31T16:31:11;11.90;;;5.50;;
29838;SDS011;18669;53.356;-1.464;2022-10-31T16:33:39;17.25;;;3.50;;
29838;SDS011;18669;53.356;-1.464;2022-10-31T16:38:54;10.35;;;2.97;;
29838;SDS011;18669;53.356;-1.464;2022-10-31T16:41:20;9.73;;;3.00;;
29838;SDS011;18669;53.356;-1.464;2022-10-31T16:43:47;12.02;;;3.03;;
29838;SDS011;18669;53.356;-1.464;2022-10-31T16:48:57;10.35;;;2.85;;
29838;SDS011;18669;53.356;-1.464;2022-10-31T16:51:23;12.02;;;3.90;;
29838;SDS011;18669;53.356;-1.464;2022-10-31T16:56:23;18.42;;;9.70;;
29838;SDS011;18669;53.356;-1.464;2022-10-31T16:58:55;21.38;;;8.43;;
29838;SDS011;18669;53.356;-1.464;2022-10-31T17:01:21;22.27;;;6.25;;
29838;SDS011;18669;53.356;-1.464;2022-10-31T17:03:47;11.95;;;6.65;;
29838;SDS011;18669;53.356;-1.464;2022-10-31T17:08:40;16.50;;;7.50;;
29838;SDS011;18669;53.356;-1.464;2022-10-31T17:11:07;20.25;;;13.00;;
29838;SDS011;18669;53.356;-1.464;2022-10-31T17:13:42;16.43;;;11.17;;
29838;SDS011;18669;53.356;-1.464;2022-10-31T17:16:08;15.38;;;7.40;;
29838;SDS011;18669;53.356;-1.464;2022-10-31T17:22:25;15.02;;;6.32;;
29838;SDS011;18669;53.356;-1.464;2022-10-31T17:24:52;12.30;;;4.95;;
29838;SDS011;18669;53.356;-1.464;2022-10-31T17:29:44;14.90;;;5.45;;
29838;SDS011;18669;53.356;-1.464;2022-10-31T17:32:10;13.70;;;4.80;;
29838;SDS011;18669;53.356;-1.464;2022-10-31T17:34:36;13.32;;;4.93;;
29838;SDS011;18669;53.356;-1.464;2022-10-31T17:37:03;15.70;;;4.50;;
29838;SDS011;18669;53.356;-1.464;2022-10-31T17:39:31;11.68;;;3.58;;
29838;SDS011;18669;53.356;-1.464;2022-10-31T17:44:23;7.13;;;3.20;;
29838;SDS011;18669;53.356;-1.464;2022-10-31T17:46:49;11.57;;;3.50;;
29838;SDS011;18669;53.356;-1.464;2022-10-31T17:51:41;11.13;;;3.53;;
29838;SDS011;18669;53.356;-1.464;2022-10-31T17:54:08;10.48;;;3.92;;
29838;SDS011;18669;53.356;-1.464;2022-10-31T17:56:35;8.82;;;2.92;;
29838;SDS011;18669;53.356;-1.464;2022-10-31T18:01:27;7.60;;;3.33;;
29838;SDS011;18669;53.356;-1.464;2022-10-31T18:03:53;11.20;;;3.70;;
29838;SDS011;18669;53.356;-1.464;2022-10-31T18:09:47;14.43;;;3.80;;
29838;SDS011;18669;53.356;-1.464;2022-10-31T18:12:14;11.23;;;3.33;;
29838;SDS011;18669;53.356;-1.464;2022-10-31T18:14:41;13.98;;;3.70;;
29838;SDS011;18669;53.356;-1.464;2022-10-31T18:17:07;12.90;;;4.38;;
29838;SDS011;18669;53.356;-1.464;2022-10-31T18:19:33;31.65;;;20.48;;
29838;SDS011;18669;53.356;-1.464;2022-10-31T18:24:25;8.63;;;3.40;;
29838;SDS011;18669;53.356;-1.464;2022-10-31T18:26:53;9.40;;;3.55;;
29838;SDS011;18669;53.356;-1.464;2022-10-31T18:29:20;12.93;;;4.32;;
29838;SDS011;18669;53.356;-1.464;2022-10-31T18:31:46;13.40;;;3.63;;
29838;SDS011;18669;53.356;-1.464;2022-10-31T18:34:13;11.82;;;3.88;;
29838;SDS011;18669;53.356;-1.464;2022-10-31T18:36:40;25.83;;;6.53;;
29838;SDS011;18669;53.356;-1.464;2022-10-31T18:39:06;15.88;;;6.13;;
29838;SDS011;18669;53.356;-1.464;2022-10-31T18:41:32;12.70;;;4.57;;
29838;SDS011;18669;53.356;-1.464;2022-10-31T18:44:00;16.13;;;5.03;;
29838;SDS011;18669;53.356;-1.464;2022-10-31T18:48:52;14.27;;;4.43;;
29838;SDS011;18669;53.356;-1.464;2022-10-31T18:51:19;14.65;;;5.82;;
29838;SDS011;18669;53.356;-1.464;2022-10-31T18:56:15;14.57;;;5.50;;
29838;SDS011;18669;53.356;-1.464;2022-10-31T18:58:41;14.18;;;5.93;;
29838;SDS011;18669;53.356;-1.464;2022-10-31T19:01:08;18.50;;;7.68;;
29838;SDS011;18669;53.356;-1.464;2022-10-31T19:03:36;14.38;;;7.68;;
29838;SDS011;18669;53.356;-1.464;2022-10-31T19:06:03;17.98;;;9.02;;
29838;SDS011;18669;53.356;-1.464;2022-10-31T19:08:30;15.55;;;7.70;;
29838;SDS011;18669;53.356;-1.464;2022-10-31T19:11:07;16.13;;;8.07;;
29838;SDS011;18669;53.356;-1.464;2022-10-31T19:13:35;11.50;;;5.53;;
29838;SDS011;18669;53.356;-1.464;2022-10-31T19:16:10;14.38;;;7.03;;
29838;SDS011;18669;53.356;-1.464;2022-10-31T19:18:40;13.93;;;7.25;;
29838;SDS011;18669;53.356;-1.464;2022-10-31T19:21:11;14.23;;;8.48;;
29838;SDS011;18669;53.356;-1.464;2022-10-31T19:23:39;18.85;;;9.10;;
29838;SDS011;18669;53.356;-1.464;2022-10-31T19:26:05;13.40;;;8.75;;
29838;SDS011;18669;53.356;-1.464;2022-10-31T19:28:33;60.97;;;28.95;;
29838;SDS011;18669;53.356;-1.464;2022-10-31T19:31:01;35.08;;;16.90;;
29838;SDS011;18669;53.356;-1.464;2022-10-31T19:33:30;32.13;;;15.77;;
29838;SDS011;18669;53.356;-1.464;2022-10-31T19:36:00;25.80;;;13.80;;
29838;SDS011;18669;53.356;-1.464;2022-10-31T19:38:33;26.10;;;11.67;;